sensor_id;sensor_type;location;lat;lon;timestamp;pressure;altitude;pressure_sealevel;temperature;humidity
19208;BME280;9737;59.466;18.036;2023-02-12T00:00:42;93713.84;;;-6.92;71.97
19208;BME280;9737;59.466;18.036;2023-02-12T00:03:11;93676.91;;;-7.01;71.73
19208;BME280;9737;59.466;18.036;2023-02-12T00:05:40;93645.22;;;-7.09;71.97
19208;BME280;9737;59.466;18.036;2023-02-12T00:08:08;93606.09;;;-7.21;71.62
19208;BME280;9737;59.466;18.036;2023-02-12T00:10:39;93566.63;;;-7.30;72.20
19208;BME280;9737;59.466;18.036;2023-02-12T00:13:08;93545.59;;;-7.41;71.63
19208;BME280;9737;59.466;18.036;2023-02-12T00:15:37;93514.72;;;-7.50;71.90
19208;BME280;9737;59.466;18.036;2023-02-12T00:18:05;93526.75;;;-7.42;72.03
19208;BME280;9737;59.466;18.036;2023-02-12T00:20:33;93538.66;;;-7.41;72.08
19208;BME280;9737;59.466;18.036;2023-02-12T00:23:03;93523.53;;;-7.44;72.01
19208;BME280;9737;59.466;18.036;2023-02-12T00:25:31;93494.91;;;-7.49;72.41
19208;BME280;9737;59.466;18.036;2023-02-12T00:27:59;93483.28;;;-7.53;72.02
19208;BME280;9737;59.466;18.036;2023-02-12T00:30:27;93488.44;;;-7.53;72.15
19208;BME280;9737;59.466;18.036;2023-02-12T00:32:55;93499.25;;;-7.50;72.01
19208;BME280;9737;59.466;18.036;2023-02-12T00:35:23;93489.25;;;-7.53;71.95
19208;BME280;9737;59.466;18.036;2023-02-12T00:37:51;93486.84;;;-7.54;72.33
19208;BME280;9737;59.466;18.036;2023-02-12T00:40:20;93468.34;;;-7.58;72.03
19208;BME280;9737;59.466;18.036;2023-02-12T00:42:48;93474.13;;;-7.56;72.34
19208;BME280;9737;59.466;18.036;2023-02-12T00:45:16;93519.34;;;-7.45;72.00
19208;BME280;9737;59.466;18.036;2023-02-12T00:47:44;93544.28;;;-7.37;71.95
19208;BME280;9737;59.466;18.036;2023-02-12T00:50:12;93590.13;;;-7.25;72.06
19208;BME280;9737;59.466;18.036;2023-02-12T00:52:40;93591.75;;;-7.24;72.06
19208;BME280;9737;59.466;18.036;2023-02-12T00:55:08;93630.06;;;-7.12;72.19
19208;BME280;9737;59.466;18.036;2023-02-12T00:57:37;93666.78;;;-7.02;72.21
19208;BME280;9737;59.466;18.036;2023-02-12T01:00:06;93693.50;;;-6.95;72.17
19208;BME280;9737;59.466;18.036;2023-02-12T01:02:34;93739.59;;;-6.84;72.01
19208;BME280;9737;59.466;18.036;2023-02-12T01:05:02;93817.28;;;-6.63;72.40
19208;BME280;9737;59.466;18.036;2023-02-12T01:07:30;93855.81;;;-6.53;72.23
19208;BME280;9737;59.466;18.036;2023-02-12T01:09:58;93864.81;;;-6.49;72.70
19208;BME280;9737;59.466;18.036;2023-02-12T01:12:26;93879.16;;;-6.46;72.24
19208;BME280;9737;59.466;18.036;2023-02-12T01:14:55;93881.59;;;-6.45;72.12
19208;BME280;9737;59.466;18.036;2023-02-12T01:17:23;93921.59;;;-6.33;72.45
19208;BME280;9737;59.466;18.036;2023-02-12T01:19:56;94026.97;;;-6.04;72.70
19208;BME280;9737;59.466;18.036;2023-02-12T01:22:25;94086.69;;;-5.90;72.79
19208;BME280;9737;59.466;18.036;2023-02-12T01:24:53;94061.50;;;-5.97;72.96
19208;BME280;9737;59.466;18.036;2023-02-12T01:27:21;94052.13;;;-5.98;72.69
19208;BME280;9737;59.466;18.036;2023-02-12T01:29:49;94026.31;;;-6.06;72.89
19208;BME280;9737;59.466;18.036;2023-02-12T01:32:18;94027.94;;;-6.05;72.88
19208;BME280;9737;59.466;18.036;2023-02-12T01:34:46;94047.13;;;-5.99;72.84
19208;BME280;9737;59.466;18.036;2023-02-12T01:37:14;94073.13;;;-5.93;72.54
19208;BME280;9737;59.466;18.036;2023-02-12T01:39:42;94066.34;;;-5.94;72.89
19208;BME280;9737;59.466;18.036;2023-02-12T01:42:11;94054.72;;;-5.98;72.80
19208;BME280;9737;59.466;18.036;2023-02-12T01:44:42;94108.28;;;-5.83;72.53
19208;BME280;9737;59.466;18.036;2023-02-12T01:47:16;94096.66;;;-5.87;72.82
19208;BME280;9737;59.466;18.036;2023-02-12T01:49:46;94126.69;;;-5.78;72.79
19208;BME280;9737;59.466;18.036;2023-02-12T01:52:17;94194.88;;;-5.63;72.88
19208;BME280;9737;59.466;18.036;2023-02-12T01:54:47;94223.94;;;-5.53;72.94
19208;BME280;9737;59.466;18.036;2023-02-12T01:57:16;94233.16;;;-5.50;73.15
19208;BME280;9737;59.466;18.036;2023-02-12T01:59:47;94283.63;;;-5.38;72.87
19208;BME280;9737;59.466;18.036;2023-02-12T02:02:18;94379.84;;;-5.10;72.90
19208;BME280;9737;59.466;18.036;2023-02-12T02:04:50;94400.53;;;-5.02;73.12
19208;BME280;9737;59.466;18.036;2023-02-12T02:07:19;94474.66;;;-4.85;73.19
19208;BME280;9737;59.466;18.036;2023-02-12T02:09:47;94529.38;;;-4.72;73.20
19208;BME280;9737;59.466;18.036;2023-02-12T02:12:15;94525.16;;;-4.73;73.36
19208;BME280;9737;59.466;18.036;2023-02-12T02:15:02;94537.78;;;-4.70;73.07
19208;BME280;9737;59.466;18.036;2023-02-12T02:17:41;94546.19;;;-4.68;73.22
19208;BME280;9737;59.466;18.036;2023-02-12T02:20:39;94552.84;;;-4.65;73.34
19208;BME280;9737;59.466;18.036;2023-02-12T02:26:32;94558.84;;;-4.64;73.42
19208;BME280;9737;59.466;18.036;2023-02-12T02:29:19;94592.50;;;-4.64;73.62
19208;BME280;9737;59.466;18.036;2023-02-12T02:31:55;94640.16;;;-4.41;73.49
19208;BME280;9737;59.466;18.036;2023-02-12T02:34:28;94672.22;;;-4.34;73.57
19208;BME280;9737;59.466;18.036;2023-02-12T02:37:06;94716.00;;;-4.23;73.52
19208;BME280;9737;59.466;18.036;2023-02-12T02:39:39;94737.09;;;-4.18;73.83
19208;BME280;9737;59.466;18.036;2023-02-12T02:42:15;94798.38;;;-4.00;73.58
19208;BME280;9737;59.466;18.036;2023-02-12T02:44:49;94862.94;;;-3.81;73.54
19208;BME280;9737;59.466;18.036;2023-02-12T02:47:23;94876.56;;;-3.87;73.66
19208;BME280;9737;59.466;18.036;2023-02-12T02:49:55;94926.25;;;-3.66;73.67
19208;BME280;9737;59.466;18.036;2023-02-12T02:52:28;94889.22;;;-3.84;73.62
19208;BME280;9737;59.466;18.036;2023-02-12T02:55:02;94943.63;;;-3.58;73.70
19208;BME280;9737;59.466;18.036;2023-02-12T02:57:35;94990.19;;;-3.49;73.86
19208;BME280;9737;59.466;18.036;2023-02-12T03:00:11;94955.28;;;-3.62;73.78
19208;BME280;9737;59.466;18.036;2023-02-12T03:02:44;94927.97;;;-3.91;73.67
19208;BME280;9737;59.466;18.036;2023-02-12T03:05:17;94998.34;;;-3.44;73.97
19208;BME280;9737;59.466;18.036;2023-02-12T03:07:49;94967.75;;;-3.74;73.74
19208;BME280;9737;59.466;18.036;2023-02-12T03:10:22;95055.97;;;-3.32;74.02
19208;BME280;9737;59.466;18.036;2023-02-12T03:12:53;95057.75;;;-3.32;73.89
19208;BME280;9737;59.466;18.036;2023-02-12T03:15:25;95024.81;;;-3.40;73.90
19208;BME280;9737;59.466;18.036;2023-02-12T03:17:57;94987.25;;;-3.54;73.86
19208;BME280;9737;59.466;18.036;2023-02-12T03:20:28;95019.59;;;-3.40;73.95
19208;BME280;9737;59.466;18.036;2023-02-12T03:23:02;95007.09;;;-3.45;74.01
19208;BME280;9737;59.466;18.036;2023-02-12T03:25:34;95068.50;;;-3.27;73.99
19208;BME280;9737;59.466;18.036;2023-02-12T03:28:06;95054.50;;;-3.34;74.01
19208;BME280;9737;59.466;18.036;2023-02-12T03:30:43;95043.13;;;-3.41;73.85
19208;BME280;9737;59.466;18.036;2023-02-12T03:33:20;95068.66;;;-3.29;74.16
19208;BME280;9737;59.466;18.036;2023-02-12T03:35:54;95104.88;;;-3.19;74.04
19208;BME280;9737;59.466;18.036;2023-02-12T03:38:34;95072.66;;;-3.42;74.08
19208;BME280;9737;59.466;18.036;2023-02-12T03:41:05;95120.16;;;-3.16;74.08
19208;BME280;9737;59.466;18.036;2023-02-12T03:43:44;95153.81;;;-3.06;74.10
19208;BME280;9737;59.466;18.036;2023-02-12T03:46:19;95143.22;;;-3.13;74.20
19208;BME280;9737;59.466;18.036;2023-02-12T03:48:58;95162.09;;;-3.03;74.28
19208;BME280;9737;59.466;18.036;2023-02-12T03:51:29;95124.47;;;-3.33;74.39
19208;BME280;9737;59.466;18.036;2023-02-12T03:54:02;95168.91;;;-3.10;74.45
19208;BME280;9737;59.466;18.036;2023-02-12T03:56:34;95177.31;;;-3.16;74.24
19208;BME280;9737;59.466;18.036;2023-02-12T03:59:04;95185.81;;;-2.98;74.34
19208;BME280;9737;59.466;18.036;2023-02-12T04:01:33;95118.34;;;-3.24;74.42
19208;BME280;9737;59.466;18.036;2023-02-12T04:04:05;95114.97;;;-3.16;74.41
19208;BME280;9737;59.466;18.036;2023-02-12T04:06:34;95113.94;;;-3.23;74.51
19208;BME280;9737;59.466;18.036;2023-02-12T04:09:03;95131.97;;;-3.22;74.43
19208;BME280;9737;59.466;18.036;2023-02-12T04:11:39;95164.34;;;-3.08;74.58
19208;BME280;9737;59.466;18.036;2023-02-12T04:14:15;95162.41;;;-3.06;74.40
19208;BME280;9737;59.466;18.036;2023-02-12T04:16:48;95202.72;;;-2.94;74.56
19208;BME280;9737;59.466;18.036;2023-02-12T04:19:29;95186.78;;;-3.07;74.57
19208;BME280;9737;59.466;18.036;2023-02-12T04:22:10;95191.97;;;-3.07;74.59
19208;BME280;9737;59.466;18.036;2023-02-12T04:24:44;95240.63;;;-2.83;74.66
19208;BME280;9737;59.466;18.036;2023-02-12T04:27:21;95224.81;;;-2.98;74.66
19208;BME280;9737;59.466;18.036;2023-02-12T04:29:55;95258.34;;;-2.87;74.60
19208;BME280;9737;59.466;18.036;2023-02-12T04:32:29;95237.47;;;-2.95;74.73
19208;BME280;9737;59.466;18.036;2023-02-12T04:35:07;95228.94;;;-2.87;74.48
19208;BME280;9737;59.466;18.036;2023-02-12T04:37:42;95221.28;;;-2.89;74.66
19208;BME280;9737;59.466;18.036;2023-02-12T04:40:12;95238.19;;;-2.85;74.70
19208;BME280;9737;59.466;18.036;2023-02-12T04:42:42;95232.56;;;-3.06;74.95
19208;BME280;9737;59.466;18.036;2023-02-12T04:45:11;95294.78;;;-2.70;74.75
19208;BME280;9737;59.466;18.036;2023-02-12T04:47:40;95288.94;;;-2.72;74.52
19208;BME280;9737;59.466;18.036;2023-02-12T04:50:10;95231.59;;;-3.05;74.79
19208;BME280;9737;59.466;18.036;2023-02-12T04:52:39;95271.03;;;-2.75;74.55
19208;BME280;9737;59.466;18.036;2023-02-12T04:55:07;95270.69;;;-2.81;74.48
19208;BME280;9737;59.466;18.036;2023-02-12T04:57:35;95343.63;;;-2.56;74.96
19208;BME280;9737;59.466;18.036;2023-02-12T05:00:03;95331.91;;;-2.60;74.81
19208;BME280;9737;59.466;18.036;2023-02-12T05:02:32;95321.63;;;-2.62;74.97
19208;BME280;9737;59.466;18.036;2023-02-12T05:05:01;95334.50;;;-2.60;74.76
19208;BME280;9737;59.466;18.036;2023-02-12T05:07:30;95304.06;;;-2.68;74.87
19208;BME280;9737;59.466;18.036;2023-02-12T05:09:58;95274.47;;;-2.75;74.76
19208;BME280;9737;59.466;18.036;2023-02-12T05:12:26;95257.03;;;-2.83;74.65
19208;BME280;9737;59.466;18.036;2023-02-12T05:14:54;95320.16;;;-2.64;74.84
19208;BME280;9737;59.466;18.036;2023-02-12T05:17:22;95294.13;;;-2.72;74.98
19208;BME280;9737;59.466;18.036;2023-02-12T05:19:50;95336.94;;;-2.59;74.99
19208;BME280;9737;59.466;18.036;2023-02-12T05:22:18;95342.97;;;-2.58;74.97
19208;BME280;9737;59.466;18.036;2023-02-12T05:24:47;95344.59;;;-2.57;74.81
19208;BME280;9737;59.466;18.036;2023-02-12T05:27:15;95341.72;;;-2.72;74.95
19208;BME280;9737;59.466;18.036;2023-02-12T05:29:43;95373.38;;;-2.51;75.04
19208;BME280;9737;59.466;18.036;2023-02-12T05:32:11;95435.06;;;-2.35;74.87
19208;BME280;9737;59.466;18.036;2023-02-12T05:34:39;95413.16;;;-2.58;74.90
19208;BME280;9737;59.466;18.036;2023-02-12T05:37:07;95481.34;;;-2.21;74.91
19208;BME280;9737;59.466;18.036;2023-02-12T05:39:35;95467.31;;;-2.28;75.06
19208;BME280;9737;59.466;18.036;2023-02-12T05:42:05;95439.28;;;-2.34;75.22
19208;BME280;9737;59.466;18.036;2023-02-12T05:44:33;95424.47;;;-2.41;75.23
19208;BME280;9737;59.466;18.036;2023-02-12T05:47:00;95473.50;;;-2.29;75.41
19208;BME280;9737;59.466;18.036;2023-02-12T05:49:28;95491.44;;;-2.17;75.29
19208;BME280;9737;59.466;18.036;2023-02-12T05:51:56;95372.13;;;-2.72;75.13
19208;BME280;9737;59.466;18.036;2023-02-12T05:54:24;95396.38;;;-2.64;75.28
19208;BME280;9737;59.466;18.036;2023-02-12T05:56:52;95425.63;;;-2.36;74.97
19208;BME280;9737;59.466;18.036;2023-02-12T05:59:22;95351.63;;;-2.75;74.97
19208;BME280;9737;59.466;18.036;2023-02-12T06:01:51;95382.66;;;-2.48;75.05
19208;BME280;9737;59.466;18.036;2023-02-12T06:04:20;95390.63;;;-2.50;75.10
19208;BME280;9737;59.466;18.036;2023-02-12T06:06:50;95451.94;;;-2.39;75.06
19208;BME280;9737;59.466;18.036;2023-02-12T06:09:18;95416.59;;;-2.58;75.27
19208;BME280;9737;59.466;18.036;2023-02-12T06:11:46;95498.88;;;-2.23;75.13
19208;BME280;9737;59.466;18.036;2023-02-12T06:14:16;95537.03;;;-2.05;75.49
19208;BME280;9737;59.466;18.036;2023-02-12T06:16:46;95509.75;;;-2.27;75.04
19208;BME280;9737;59.466;18.036;2023-02-12T06:19:15;95537.03;;;-2.05;75.13
19208;BME280;9737;59.466;18.036;2023-02-12T06:21:44;95557.59;;;-2.02;74.98
19208;BME280;9737;59.466;18.036;2023-02-12T06:24:12;95542.88;;;-2.11;75.21
19208;BME280;9737;59.466;18.036;2023-02-12T06:26:41;95560.03;;;-2.01;75.52
19208;BME280;9737;59.466;18.036;2023-02-12T06:29:09;95611.66;;;-1.88;75.10
19208;BME280;9737;59.466;18.036;2023-02-12T06:31:37;95634.66;;;-1.83;75.22
19208;BME280;9737;59.466;18.036;2023-02-12T06:34:08;95569.81;;;-2.21;75.30
19208;BME280;9737;59.466;18.036;2023-02-12T06:36:38;95660.72;;;-1.75;75.38
19208;BME280;9737;59.466;18.036;2023-02-12T06:39:07;95651.19;;;-1.93;75.60
19208;BME280;9737;59.466;18.036;2023-02-12T06:41:35;95669.31;;;-1.83;75.43
19208;BME280;9737;59.466;18.036;2023-02-12T06:44:04;95620.44;;;-2.15;75.35
19208;BME280;9737;59.466;18.036;2023-02-12T06:46:32;95673.19;;;-1.87;75.53
19208;BME280;9737;59.466;18.036;2023-02-12T06:49:00;95685.22;;;-1.68;75.62
19208;BME280;9737;59.466;18.036;2023-02-12T06:51:29;95688.94;;;-1.71;75.65
19208;BME280;9737;59.466;18.036;2023-02-12T06:53:57;95748.66;;;-1.51;75.71
19208;BME280;9737;59.466;18.036;2023-02-12T06:56:26;95731.84;;;-1.57;75.38
19208;BME280;9737;59.466;18.036;2023-02-12T06:58:57;95755.50;;;-1.50;75.49
19208;BME280;9737;59.466;18.036;2023-02-12T07:01:28;95796.28;;;-1.41;75.37
19208;BME280;9737;59.466;18.036;2023-02-12T07:03:58;95745.84;;;-1.76;75.19
19208;BME280;9737;59.466;18.036;2023-02-12T07:06:27;95830.88;;;-1.31;75.80
19208;BME280;9737;59.466;18.036;2023-02-12T07:08:56;95809.31;;;-1.41;75.49
19208;BME280;9737;59.466;18.036;2023-02-12T07:11:25;95847.84;;;-1.27;75.67
19208;BME280;9737;59.466;18.036;2023-02-12T07:13:54;95769.00;;;-1.73;75.37
19208;BME280;9737;59.466;18.036;2023-02-12T07:16:22;95873.97;;;-1.19;75.37
19208;BME280;9737;59.466;18.036;2023-02-12T07:18:50;95858.81;;;-1.41;75.57
19208;BME280;9737;59.466;18.036;2023-02-12T07:21:19;95890.75;;;-1.21;76.00
19208;BME280;9737;59.466;18.036;2023-02-12T07:23:48;95931.63;;;-1.04;75.66
19208;BME280;9737;59.466;18.036;2023-02-12T07:26:20;95919.72;;;-1.07;75.47
19208;BME280;9737;59.466;18.036;2023-02-12T07:28:48;95884.72;;;-1.40;75.90
19208;BME280;9737;59.466;18.036;2023-02-12T07:31:19;95967.06;;;-0.94;76.12
19208;BME280;9737;59.466;18.036;2023-02-12T07:33:48;95943.25;;;-1.16;75.98
19208;BME280;9737;59.466;18.036;2023-02-12T07:36:19;95926.19;;;-1.29;75.58
19208;BME280;9737;59.466;18.036;2023-02-12T07:38:47;95962.72;;;-1.11;75.48
19208;BME280;9737;59.466;18.036;2023-02-12T07:41:18;96036.00;;;-0.78;75.85
19208;BME280;9737;59.466;18.036;2023-02-12T07:43:48;96024.91;;;-0.80;75.85
19208;BME280;9737;59.466;18.036;2023-02-12T07:46:22;96042.19;;;-0.79;75.87
19208;BME280;9737;59.466;18.036;2023-02-12T07:48:52;96079.97;;;-0.66;75.55
19208;BME280;9737;59.466;18.036;2023-02-12T07:51:19;96100.25;;;-0.59;75.87
19208;BME280;9737;59.466;18.036;2023-02-12T07:53:49;96122.34;;;-0.54;76.06
19208;BME280;9737;59.466;18.036;2023-02-12T07:56:20;96157.31;;;-0.47;76.03
19208;BME280;9737;59.466;18.036;2023-02-12T07:58:50;96135.41;;;-0.54;76.08
19208;BME280;9737;59.466;18.036;2023-02-12T08:01:20;96190.34;;;-0.38;76.09
19208;BME280;9737;59.466;18.036;2023-02-12T08:03:50;96181.25;;;-0.51;76.02
19208;BME280;9737;59.466;18.036;2023-02-12T08:06:20;96195.78;;;-0.49;75.62
19208;BME280;9737;59.466;18.036;2023-02-12T08:08:50;96274.44;;;-0.16;75.72
19208;BME280;9737;59.466;18.036;2023-02-12T08:11:20;96238.69;;;-0.34;75.65
19208;BME280;9737;59.466;18.036;2023-02-12T08:13:48;96282.97;;;-0.14;76.33
19208;BME280;9737;59.466;18.036;2023-02-12T08:16:17;96296.53;;;-0.11;76.02
19208;BME280;9737;59.466;18.036;2023-02-12T08:18:46;96286.25;;;-0.12;76.06
19208;BME280;9737;59.466;18.036;2023-02-12T08:21:15;96346.66;;;0.03;76.23
19208;BME280;9737;59.466;18.036;2023-02-12T08:23:44;96358.44;;;0.07;76.07
19208;BME280;9737;59.466;18.036;2023-02-12T08:26:17;96362.31;;;0.03;76.19
19208;BME280;9737;59.466;18.036;2023-02-12T08:28:48;96407.06;;;0.17;75.85
19208;BME280;9737;59.466;18.036;2023-02-12T08:31:20;96426.69;;;0.21;75.96
19208;BME280;9737;59.466;18.036;2023-02-12T08:33:50;96464.75;;;0.34;76.44
19208;BME280;9737;59.466;18.036;2023-02-12T08:36:20;96483.41;;;0.39;76.38
19208;BME280;9737;59.466;18.036;2023-02-12T08:38:49;96506.22;;;0.46;75.96
19208;BME280;9737;59.466;18.036;2023-02-12T08:41:18;96537.81;;;0.53;76.45
19208;BME280;9737;59.466;18.036;2023-02-12T08:43:50;96552.94;;;0.59;76.37
19208;BME280;9737;59.466;18.036;2023-02-12T08:46:20;96592.41;;;0.66;76.41
19208;BME280;9737;59.466;18.036;2023-02-12T08:48:51;96626.34;;;0.75;76.38
19208;BME280;9737;59.466;18.036;2023-02-12T08:51:24;96663.75;;;0.85;76.09
19208;BME280;9737;59.466;18.036;2023-02-12T08:53:54;96648.72;;;0.60;75.97
19208;BME280;9737;59.466;18.036;2023-02-12T08:56:23;96752.34;;;1.08;76.39
19208;BME280;9737;59.466;18.036;2023-02-12T08:58:52;96800.94;;;1.20;76.27
19208;BME280;9737;59.466;18.036;2023-02-12T09:01:22;96849.53;;;1.32;76.41
19208;BME280;9737;59.466;18.036;2023-02-12T09:03:51;96880.16;;;1.22;76.35
19208;BME280;9737;59.466;18.036;2023-02-12T09:06:21;96987.53;;;1.69;76.40
19208;BME280;9737;59.466;18.036;2023-02-12T09:08:50;96997.75;;;1.72;76.06
19208;BME280;9737;59.466;18.036;2023-02-12T09:11:20;96973.25;;;1.44;76.54
19208;BME280;9737;59.466;18.036;2023-02-12T09:13:49;97020.94;;;1.57;76.40
19208;BME280;9737;59.466;18.036;2023-02-12T09:16:19;97125.69;;;2.05;76.67
19208;BME280;9737;59.466;18.036;2023-02-12T09:18:49;97166.78;;;2.14;76.58
19208;BME280;9737;59.466;18.036;2023-02-12T09:21:18;97185.56;;;2.10;76.54
19208;BME280;9737;59.466;18.036;2023-02-12T09:23:46;97240.22;;;2.34;76.72
19208;BME280;9737;59.466;18.036;2023-02-12T09:26:16;97301.75;;;2.49;76.51
19208;BME280;9737;59.466;18.036;2023-02-12T09:28:46;97381.84;;;2.72;76.63
19208;BME280;9737;59.466;18.036;2023-02-12T09:31:17;97421.34;;;2.80;76.69
19208;BME280;9737;59.466;18.036;2023-02-12T09:33:48;97496.00;;;2.97;76.54
19208;BME280;9737;59.466;18.036;2023-02-12T09:36:20;97561.09;;;3.13;76.62
19208;BME280;9737;59.466;18.036;2023-02-12T09:38:49;97501.78;;;2.91;76.81
19208;BME280;9737;59.466;18.036;2023-02-12T09:44:35;97603.78;;;3.15;76.92
19208;BME280;9737;59.466;18.036;2023-02-12T09:47:12;97716.72;;;3.55;76.84
19208;BME280;9737;59.466;18.036;2023-02-12T09:50:01;97768.75;;;3.71;76.85
19208;BME280;9737;59.466;18.036;2023-02-12T09:52:32;97800.78;;;3.76;77.12
19208;BME280;9737;59.466;18.036;2023-02-12T09:55:03;97783.97;;;3.58;77.07
19208;BME280;9737;59.466;18.036;2023-02-12T09:57:32;97894.22;;;3.99;76.95
19208;BME280;9737;59.466;18.036;2023-02-12T10:00:04;97984.94;;;4.05;76.97
19208;BME280;9737;59.466;18.036;2023-02-12T10:02:34;98106.91;;;4.55;76.96
19208;BME280;9737;59.466;18.036;2023-02-12T10:05:05;98188.19;;;4.70;76.44
19208;BME280;9737;59.466;18.036;2023-02-12T10:07:52;98105.50;;;4.51;77.04
19208;BME280;9737;59.466;18.036;2023-02-12T10:10:33;98149.94;;;4.65;76.91
19208;BME280;9737;59.466;18.036;2023-02-12T10:13:14;98252.91;;;4.72;77.04
19208;BME280;9737;59.466;18.036;2023-02-12T10:15:50;98343.41;;;5.13;77.32
19208;BME280;9737;59.466;18.036;2023-02-12T10:18:41;98481.13;;;5.47;77.01
19208;BME280;9737;59.466;18.036;2023-02-12T10:21:22;98504.38;;;5.53;76.85
19208;BME280;9737;59.466;18.036;2023-02-12T10:24:07;98511.06;;;5.57;76.55
19208;BME280;9737;59.466;18.036;2023-02-12T10:26:42;98570.16;;;5.54;77.19
19208;BME280;9737;59.466;18.036;2023-02-12T10:29:16;98729.22;;;6.09;76.79
19208;BME280;9737;59.466;18.036;2023-02-12T10:31:47;98690.25;;;6.02;76.95
19208;BME280;9737;59.466;18.036;2023-02-12T10:34:18;98802.44;;;6.28;77.40
19208;BME280;9737;59.466;18.036;2023-02-12T10:36:49;98793.81;;;6.26;76.97
19208;BME280;9737;59.466;18.036;2023-02-12T10:39:22;98776.94;;;6.17;77.31
19208;BME280;9737;59.466;18.036;2023-02-12T10:41:55;98711.09;;;6.05;76.71
19208;BME280;9737;59.466;18.036;2023-02-12T10:44:25;98681.88;;;5.97;77.46
19208;BME280;9737;59.466;18.036;2023-02-12T10:46:53;98718.31;;;6.03;77.31
19208;BME280;9737;59.466;18.036;2023-02-12T10:49:22;98701.19;;;5.97;77.10
19208;BME280;9737;59.466;18.036;2023-02-12T10:52:02;98589.84;;;5.50;77.37
19208;BME280;9737;59.466;18.036;2023-02-12T10:54:40;98662.84;;;5.82;77.28
19208;BME280;9737;59.466;18.036;2023-02-12T10:57:18;98651.22;;;5.73;77.02
19208;BME280;9737;59.466;18.036;2023-02-12T10:59:49;98708.59;;;6.03;77.13
19208;BME280;9737;59.466;18.036;2023-02-12T11:02:21;98726.72;;;6.08;76.77
19208;BME280;9737;59.466;18.036;2023-02-12T11:04:51;98764.25;;;6.11;77.44
19208;BME280;9737;59.466;18.036;2023-02-12T11:07:21;98791.47;;;6.12;77.29
19208;BME280;9737;59.466;18.036;2023-02-12T11:09:54;98779.44;;;6.19;77.18
19208;BME280;9737;59.466;18.036;2023-02-12T11:12:31;98768.19;;;6.17;77.40
19208;BME280;9737;59.466;18.036;2023-02-12T11:15:12;98727.50;;;5.65;76.92
19208;BME280;9737;59.466;18.036;2023-02-12T11:17:45;98790.78;;;6.10;77.14
19208;BME280;9737;59.466;18.036;2023-02-12T11:20:26;98951.22;;;6.61;76.84
19208;BME280;9737;59.466;18.036;2023-02-12T11:22:58;98880.44;;;6.32;77.17
19208;BME280;9737;59.466;18.036;2023-02-12T11:25:29;98901.91;;;6.50;77.07
19208;BME280;9737;59.466;18.036;2023-02-12T11:28:00;98850.47;;;6.22;76.84
19208;BME280;9737;59.466;18.036;2023-02-12T11:30:28;98981.72;;;6.53;77.04
19208;BME280;9737;59.466;18.036;2023-02-12T11:33:13;99132.91;;;7.02;77.04
19208;BME280;9737;59.466;18.036;2023-02-12T11:35:50;99082.69;;;6.79;77.02
19208;BME280;9737;59.466;18.036;2023-02-12T11:38:23;98988.94;;;6.51;77.01
19208;BME280;9737;59.466;18.036;2023-02-12T11:40:56;99054.69;;;6.88;77.06
19208;BME280;9737;59.466;18.036;2023-02-12T11:43:27;99077.25;;;6.92;77.35
19208;BME280;9737;59.466;18.036;2023-02-12T11:45:58;99007.44;;;6.51;77.20
19208;BME280;9737;59.466;18.036;2023-02-12T11:48:29;99123.03;;;7.04;77.01
19208;BME280;9737;59.466;18.036;2023-02-12T11:51:02;99078.94;;;6.93;76.80
19208;BME280;9737;59.466;18.036;2023-02-12T11:53:36;99129.66;;;6.98;77.08
19208;BME280;9737;59.466;18.036;2023-02-12T11:56:08;99105.16;;;6.96;76.96
19208;BME280;9737;59.466;18.036;2023-02-12T11:58:37;99069.59;;;6.89;77.27
19208;BME280;9737;59.466;18.036;2023-02-12T12:01:12;99014.16;;;6.67;77.09
19208;BME280;9737;59.466;18.036;2023-02-12T12:03:51;99015.34;;;6.74;77.10
19208;BME280;9737;59.466;18.036;2023-02-12T12:06:24;98978.84;;;6.68;76.91
19208;BME280;9737;59.466;18.036;2023-02-12T12:09:02;98948.69;;;6.59;76.67
19208;BME280;9737;59.466;18.036;2023-02-12T12:11:40;98863.94;;;6.19;76.86
19208;BME280;9737;59.466;18.036;2023-02-12T12:14:15;98854.06;;;6.21;76.91
19208;BME280;9737;59.466;18.036;2023-02-12T12:16:51;98966.81;;;6.64;76.70
19208;BME280;9737;59.466;18.036;2023-02-12T12:19:44;98999.47;;;6.74;76.96
19208;BME280;9737;59.466;18.036;2023-02-12T12:22:39;98885.00;;;6.41;76.82
19208;BME280;9737;59.466;18.036;2023-02-12T12:25:17;98777.78;;;6.18;76.56
19208;BME280;9737;59.466;18.036;2023-02-12T12:28:00;98751.31;;;6.08;76.81
19208;BME280;9737;59.466;18.036;2023-02-12T12:30:47;98640.28;;;5.78;76.72
19208;BME280;9737;59.466;18.036;2023-02-12T12:33:23;98658.88;;;5.87;76.79
19208;BME280;9737;59.466;18.036;2023-02-12T12:36:07;98647.94;;;5.60;76.85
19208;BME280;9737;59.466;18.036;2023-02-12T12:38:47;98613.34;;;5.74;76.44
19208;BME280;9737;59.466;18.036;2023-02-12T12:41:26;98699.50;;;5.96;77.07
19208;BME280;9737;59.466;18.036;2023-02-12T12:44:07;98705.03;;;5.93;76.82
19208;BME280;9737;59.466;18.036;2023-02-12T12:46:52;98589.13;;;5.69;76.99
19208;BME280;9737;59.466;18.036;2023-02-12T12:55:40;98624.84;;;5.73;76.30
19208;BME280;9737;59.466;18.036;2023-02-12T12:58:20;98608.56;;;5.68;76.40
19208;BME280;9737;59.466;18.036;2023-02-12T13:01:03;98563.09;;;5.55;76.43
19208;BME280;9737;59.466;18.036;2023-02-12T13:03:52;98607.22;;;5.74;76.52
19208;BME280;9737;59.466;18.036;2023-02-12T13:06:35;98481.75;;;5.39;76.21
19208;BME280;9737;59.466;18.036;2023-02-12T13:09:23;98487.56;;;5.33;76.74
19208;BME280;9737;59.466;18.036;2023-02-12T13:12:12;98537.41;;;5.57;76.43
19208;BME280;9737;59.466;18.036;2023-02-12T13:14:52;98393.34;;;5.14;76.92
19208;BME280;9737;59.466;18.036;2023-02-12T13:17:27;98391.16;;;5.19;76.19
19208;BME280;9737;59.466;18.036;2023-02-12T13:20:07;98420.16;;;5.19;76.44
19208;BME280;9737;59.466;18.036;2023-02-12T13:22:42;98389.50;;;5.18;75.93
19208;BME280;9737;59.466;18.036;2023-02-12T13:25:21;98355.06;;;5.10;76.11
19208;BME280;9737;59.466;18.036;2023-02-12T13:27:50;98284.88;;;4.88;76.69
19208;BME280;9737;59.466;18.036;2023-02-12T13:30:24;98221.91;;;4.76;76.38
19208;BME280;9737;59.466;18.036;2023-02-12T13:33:02;98190.13;;;4.68;76.24
19208;BME280;9737;59.466;18.036;2023-02-12T13:35:34;98201.09;;;4.73;76.66
19208;BME280;9737;59.466;18.036;2023-02-12T13:38:06;98142.22;;;4.53;76.42
19208;BME280;9737;59.466;18.036;2023-02-12T13:40:36;98143.19;;;4.52;76.25
19208;BME280;9737;59.466;18.036;2023-02-12T13:43:10;98121.44;;;4.50;76.30